Alanreed, Texas
Current Conditions -  °F | °C
As of 10:15 AM on Wednesday 22 Oct 2014 (Local Time) from KPPA Reporting Station
Drizzle Drizzle  
Wind Chill: 57°   Ceiling: 4100
Heat Index: 57°   Visibility: 2.5mi
Dew Point: 54°   Wind: 15mph
Humidity: 91%   Direction: 220°SW
Pressure: 30.16"   Gusts: 20mph
Location:  35.21°N, 100.74°W
Report Text: KPPA 221515Z AUTO 22013G17KT 2 1/2SM +DZ SCT015 SCT022 OVC041 14/12 A3016 RMK AO2 T01390124 PNO
Loading
Personal Weather Stations






























Interactive Weather Map
Tropical Storm Tracking
New forecast layout! Learn more

10-Day Weather Forecast

Advertisements
Track Severe Weather on mobile